Open Full Screen Window  High Contrast Mode
Wind Gusting 00 knots
03
September 01, 2016 1:31 AM EDT
Weather Information
Wind Direction
  340 °
Wind Speed
  03 kt (3 mph)
Wind Gust
  00 kt (0 mph)
Altimeter
29.97 in
Visibility
10 SM
Temperature
22° C
72° F
Dewpoint
21° C
70° F
Humidity
94%
1hr Rain Fall
00.00 in.
24hr Rain Fall
00.01 in.
Sky Condition
Clear
VFR

METAR KI69 010531Z AUTO 34003KT 10SM CLR 22/21 A2997 RMK AO2 T02150211

*Background is not an actual portrayal of the airport.